LRTR/TSR METAR and TAF weather

Enter ICAO airport designator
Station Type Date Time Source
LRTR METAR 2022/12/10 02:30 UTC NOAA

LRTR 100230Z 09006KT 8000 RA BKN047 10/10 Q1003


Station Type Date Time Source
LRTR Decoded METAR 2022/12/10 02:30 UTC NOAA

Timisoara, Romania (LRTR) 45-46N 021-15E 88M
Dec 09, 2022 - 09:30 PM EST / 2022.12.10 0230 UTC
Wind: from the E (090 degrees) at 7 MPH (6 KT):0
Visibility: 4 mile(s):0
Sky conditions: mostly cloudy
Weather: rain
Temperature: 50 F (10 C)
Dew Point: 50 F (10 C)
Relative Humidity: 100%
Pressure (altimeter): 29.62 in. Hg (1003 hPa)
ob: LRTR 100230Z 09006KT 8000 RA BKN047 10/10 Q1003
cycle: 2

Station Type Date Time Source
LRTR TAF 2022/12/09 18:33 UTC NOAA

TAF LRTR 091700Z 0918/1018 16012KT 7000 -RA SCT010 SCT045
TEMPO 0921/1006 5000 -RA BR BKN010 BKN035
TEMPO 1011/1018 5000 -SHRA BKN005 SCT020CB BKN030

Example: see airport list